Time,TemperatureF,DewpointF,PressureIn,WindDirection,WindDirectionDegrees,WindSpeedMPH,WindSpeedGustMPH,Humidity,HourlyPrecipIn,Conditions,Clouds,dailyrainin,SoftwareType,DateUTC
2013-03-23 06:51:00,26.4,22.4,29.94,North,0,0.0,0.0,85,0.00,,,0.00,WUHU216HW,2013-03-23 05:51:00,
2013-03-23 06:56:00,26.7,22.6,29.94,North,0,0.0,0.0,85,0.00,,,0.00,WUHU216HW,2013-03-23 05:56:00,
2013-03-23 07:01:00,27.1,23.1,29.94,WNW,293,0.0,0.0,85,0.00,,,0.00,WUHU216HW,2013-03-23 06:01:00,
2013-03-23 10:41:00,31.8,24.4,29.99,SSE,158,0.0,0.0,74,0.00,,,0.00,WUHU216HW,2013-03-23 09:41:00,
2013-03-23 10:46:00,31.8,24.4,29.99,ESE,113,0.8,4.6,74,0.00,,,0.00,WUHU216HW,2013-03-23 09:46:00,
2013-03-23 10:51:00,31.8,24.4,29.99,ENE,68,0.0,4.6,74,0.00,,,0.00,WUHU216HW,2013-03-23 09:51:00,
2013-03-23 10:56:00,32.1,24.4,29.99,SE,135,0.0,4.4,73,0.00,,,0.00,WUHU216HW,2013-03-23 09:56:00,
2013-03-23 11:01:00,32.3,24.6,30.00,ESE,113,0.0,3.8,73,0.00,,,0.00,WUHU216HW,2013-03-23 10:01:00,
2013-03-23 11:06:00,32.3,24.6,30.00,ENE,68,0.0,3.8,73,0.00,,,0.00,WUHU216HW,2013-03-23 10:06:00,
2013-03-23 11:11:00,32.1,24.1,30.00,ESE,113,3.8,6.2,72,0.00,,,0.00,WUHU216HW,2013-03-23 10:11:00,
2013-03-23 11:16:00,32.7,24.9,30.00,ESE,113,0.0,6.2,73,0.00,,,0.00,WUHU216HW,2013-03-23 10:16:00,
2013-03-23 11:22:00,32.7,24.6,30.00,ESE,113,0.0,4.6,72,0.00,,,0.00,WUHU216HW,2013-03-23 10:22:00,
2013-03-23 11:27:00,32.7,24.6,30.00,ESE,113,0.0,4.6,72,0.00,,,0.00,WUHU216HW,2013-03-23 10:27:00,
2013-03-23 11:32:00,32.9,24.8,30.00,SE,135,0.0,3.3,72,0.00,,,0.00,WUHU216HW,2013-03-23 10:32:00,
2013-03-23 11:37:00,33.0,24.9,30.00,ESE,113,0.0,4.4,72,0.00,,,0.00,WUHU216HW,2013-03-23 10:37:00,
2013-03-23 11:42:00,33.2,25.3,30.00,ESE,113,2.2,4.4,72,0.00,,,0.00,WUHU216HW,2013-03-23 10:42:00,
2013-03-23 11:47:00,33.8,25.9,30.00,ESE,113,1.1,4.2,73,0.00,,,0.00,WUHU216HW,2013-03-23 10:47:00,
2013-03-23 11:52:00,33.9,25.8,30.00,ESE,113,2.0,5.3,72,0.00,,,0.00,WUHU216HW,2013-03-23 10:52:00,
2013-03-23 11:57:00,33.6,25.4,30.01,ENE,68,0.0,5.3,72,0.00,,,0.00,WUHU216HW,2013-03-23 10:57:00,
2013-03-23 12:02:00,33.6,25.4,30.01,East,90,0.0,0.0,72,0.00,,,0.00,WUHU216HW,2013-03-23 11:02:00,
2013-03-23 12:07:00,33.8,25.6,30.01,SE,135,4.9,4.9,72,0.00,,,0.00,WUHU216HW,2013-03-23 11:07:00,
2013-03-23 12:12:00,33.9,25.8,30.00,SSW,203,0.0,4.9,72,0.00,,,0.00,WUHU216HW,2013-03-23 11:12:00,
2013-03-23 12:17:00,34.1,25.6,30.00,East,90,2.6,3.8,71,0.00,,,0.00,WUHU216HW,2013-03-23 11:17:00,
2013-03-23 12:22:00,33.9,25.1,30.00,ESE,113,0.0,4.9,70,0.00,,,0.00,WUHU216HW,2013-03-23 11:22:00,
2013-03-23 12:27:00,33.9,25.4,30.00,SSE,158,1.1,4.9,71,0.00,,,0.00,WUHU216HW,2013-03-23 11:27:00,
2013-03-23 12:32:00,34.3,25.6,30.00,South,180,0.0,3.3,71,0.00,,,0.00,WUHU216HW,2013-03-23 11:32:00,
2013-03-23 12:37:00,34.1,25.6,30.01,SE,135,0.0,0.8,71,0.00,,,0.00,WUHU216HW,2013-03-23 11:37:00,
2013-03-23 12:42:00,34.3,25.5,30.00,ESE,113,0.0,0.0,70,0.00,,,0.00,WUHU216HW,2013-03-23 11:42:00,
2013-03-23 12:47:00,34.3,25.5,30.01,SSE,158,0.0,0.8,70,0.00,,,0.00,WUHU216HW,2013-03-23 11:47:00,
2013-03-23 12:52:00,34.1,25.3,30.01,SE,135,0.0,4.0,70,0.00,,,0.00,WUHU216HW,2013-03-23 11:52:00,
2013-03-23 12:57:00,33.9,25.1,30.01,South,180,0.0,4.0,70,0.00,,,0.00,WUHU216HW,2013-03-23 11:57:00,
2013-03-23 13:02:00,34.5,25.8,30.00,SE,135,0.6,2.0,71,0.00,,,0.00,WUHU216HW,2013-03-23 12:02:00,
2013-03-23 13:07:00,34.7,26.0,30.00,ESE,113,0.0,0.6,70,0.00,,,0.00,WUHU216HW,2013-03-23 12:07:00,
2013-03-23 13:12:00,34.5,25.7,30.00,ESE,113,0.0,5.3,70,0.00,,,0.00,WUHU216HW,2013-03-23 12:12:00,
2013-03-23 13:17:00,34.8,26.0,30.00,SSE,158,0.0,5.3,70,0.00,,,0.00,WUHU216HW,2013-03-23 12:17:00,
2013-03-23 13:22:00,34.5,25.3,30.01,East,90,0.0,2.9,69,0.00,,,0.00,WUHU216HW,2013-03-23 12:22:00,
2013-03-23 13:27:00,34.3,25.1,30.00,West,270,0.0,2.2,69,0.00,,,0.00,WUHU216HW,2013-03-23 12:27:00,
2013-03-23 13:32:00,34.5,25.3,30.00,ENE,68,0.0,2.2,69,0.00,,,0.00,WUHU216HW,2013-03-23 12:32:00,
2013-03-23 13:37:00,34.8,25.7,30.00,South,180,0.6,2.6,69,0.00,,,0.00,WUHU216HW,2013-03-23 12:37:00,
2013-03-23 13:42:00,34.8,25.7,29.99,ESE,113,2.6,2.6,69,0.00,,,0.00,WUHU216HW,2013-03-23 12:42:00,
2013-03-23 13:47:00,35.2,26.0,29.99,ESE,113,1.3,2.9,69,0.00,,,0.00,WUHU216HW,2013-03-23 12:47:00,
2013-03-23 13:52:00,35.2,26.0,29.99,ESE,113,3.1,5.1,69,0.00,,,0.00,WUHU216HW,2013-03-23 12:52:00,
2013-03-23 13:57:00,35.2,26.0,29.99,ESE,113,0.0,5.1,69,0.00,,,0.00,WUHU216HW,2013-03-23 12:57:00,
2013-03-23 14:03:00,35.4,26.2,29.99,ESE,113,0.0,3.5,69,0.00,,,0.00,WUHU216HW,2013-03-23 13:03:00,
2013-03-23 14:08:00,35.2,26.0,29.99,SSE,158,1.7,3.5,69,0.00,,,0.00,WUHU216HW,2013-03-23 13:08:00,
2013-03-23 14:13:00,35.2,26.0,29.99,SSE,158,2.9,3.5,69,0.00,,,0.00,WUHU216HW,2013-03-23 13:13:00,
2013-03-23 14:18:00,35.2,26.0,29.99,East,90,3.3,3.3,69,0.00,,,0.00,WUHU216HW,2013-03-23 13:18:00,
2013-03-23 14:23:00,35.7,26.9,29.99,SSW,203,0.0,3.3,70,0.00,,,0.00,WUHU216HW,2013-03-23 13:23:00,
2013-03-23 14:28:00,35.4,26.2,29.99,ESE,113,0.0,2.9,69,0.00,,,0.00,WUHU216HW,2013-03-23 13:28:00,
2013-03-23 14:33:00,35.2,26.0,29.99,East,90,0.0,2.9,69,0.00,,,0.00,WUHU216HW,2013-03-23 13:33:00,
2013-03-23 14:38:00,35.2,26.0,29.99,SW,225,0.0,2.9,69,0.00,,,0.00,WUHU216HW,2013-03-23 13:38:00,
2013-03-23 14:43:00,35.2,26.0,30.00,South,180,1.5,1.5,69,0.00,,,0.00,WUHU216HW,2013-03-23 13:43:00,
2013-03-23 14:48:00,35.2,26.0,30.00,SSE,158,0.0,1.5,69,0.00,,,0.00,WUHU216HW,2013-03-23 13:48:00,
2013-03-23 14:53:00,35.4,26.2,30.00,ESE,113,1.3,1.3,69,0.00,,,0.00,WUHU216HW,2013-03-23 13:53:00,
2013-03-23 14:58:00,35.2,26.2,30.00,ESE,113,0.0,2.4,69,0.00,,,0.00,WUHU216HW,2013-03-23 13:58:00,
2013-03-23 15:03:00,35.7,26.9,30.00,ESE,113,0.0,2.4,70,0.00,,,0.00,WUHU216HW,2013-03-23 14:03:00,
2013-03-23 15:08:00,35.9,26.7,30.00,ESE,113,1.7,2.2,69,0.00,,,0.00,WUHU216HW,2013-03-23 14:08:00,
2013-03-23 15:13:00,36.1,26.9,30.00,SE,135,0.0,2.2,69,0.00,,,0.00,WUHU216HW,2013-03-23 14:13:00,
2013-03-23 15:18:00,36.3,27.1,30.01,ESE,113,4.0,4.4,69,0.00,,,0.00,WUHU216HW,2013-03-23 14:18:00,
2013-03-23 15:23:00,35.7,26.2,30.00,ESE,113,0.0,4.4,68,0.00,,,0.00,WUHU216HW,2013-03-23 14:23:00,
2013-03-23 15:28:00,35.6,26.2,30.00,ENE,68,0.0,4.4,69,0.00,,,0.00,WUHU216HW,2013-03-23 14:28:00,
2013-03-23 15:33:00,35.2,26.0,30.00,ESE,113,0.0,4.4,69,0.00,,,0.00,WUHU216HW,2013-03-23 14:33:00,
2013-03-23 15:38:00,35.0,25.8,30.00,South,180,0.0,4.4,69,0.00,,,0.00,WUHU216HW,2013-03-23 14:38:00,
2013-03-23 15:43:00,35.2,26.0,30.00,SE,135,0.0,2.4,69,0.00,,,0.00,WUHU216HW,2013-03-23 14:43:00,
2013-03-23 15:48:00,35.4,26.2,30.00,ESE,113,0.8,2.4,69,0.00,,,0.00,WUHU216HW,2013-03-23 14:48:00,
2013-03-23 15:53:00,35.4,26.2,30.00,South,180,0.0,0.8,69,0.00,,,0.00,WUHU216HW,2013-03-23 14:53:00,
2013-03-23 15:58:00,35.2,26.0,30.00,SE,135,0.0,1.3,69,0.00,,,0.00,WUHU216HW,2013-03-23 14:58:00,
2013-03-23 16:03:00,35.2,25.8,30.00,ESE,113,3.5,3.5,69,0.00,,,0.00,WUHU216HW,2013-03-23 15:03:00,
2013-03-23 16:08:00,35.0,25.8,30.00,SE,135,0.0,3.5,69,0.00,,,0.00,WUHU216HW,2013-03-23 15:08:00,
2013-03-23 16:13:00,35.0,25.8,29.99,ESE,113,0.0,3.5,69,0.00,,,0.00,WUHU216HW,2013-03-23 15:13:00,
2013-03-23 16:18:00,34.8,25.7,30.00,SSE,158,0.0,3.5,69,0.00,,,0.00,WUHU216HW,2013-03-23 15:18:00,
2013-03-23 16:23:00,34.8,25.7,30.00,SE,135,0.0,1.5,69,0.00,,,0.00,WUHU216HW,2013-03-23 15:23:00,
2013-03-23 16:28:00,34.8,25.7,30.00,South,180,0.0,2.4,69,0.00,,,0.00,WUHU216HW,2013-03-23 15:28:00,
2013-03-23 16:33:00,34.5,24.9,30.00,SE,135,0.0,2.4,68,0.00,,,0.00,WUHU216HW,2013-03-23 15:33:00,
2013-03-23 16:38:00,34.3,25.1,30.00,ESE,113,0.0,1.1,69,0.00,,,0.00,WUHU216HW,2013-03-23 15:38:00,
2013-03-23 16:43:00,34.1,24.9,30.00,SE,135,0.0,1.1,69,0.00,,,0.00,WUHU216HW,2013-03-23 15:43:00,
2013-03-23 16:48:00,34.3,25.1,30.00,ESE,113,0.0,0.0,69,0.00,,,0.00,WUHU216HW,2013-03-23 15:48:00,
2013-03-23 16:53:00,34.3,25.1,30.00,ESE,113,2.4,2.4,69,0.00,,,0.00,WUHU216HW,2013-03-23 15:53:00,
2013-03-23 16:58:00,33.9,24.8,30.00,East,90,0.0,2.4,69,0.00,,,0.00,WUHU216HW,2013-03-23 15:58:00,
2013-03-23 17:03:00,33.8,24.6,30.00,ESE,113,0.0,0.0,69,0.00,,,0.00,WUHU216HW,2013-03-23 16:03:00,
2013-03-23 17:08:00,33.6,24.8,30.00,ESE,113,0.0,0.0,70,0.00,,,0.00,WUHU216HW,2013-03-23 16:08:00,
2013-03-23 17:14:00,33.4,24.6,30.00,ESE,113,0.0,0.0,70,0.00,,,0.00,WUHU216HW,2013-03-23 16:14:00,
2013-03-23 17:19:00,33.0,24.3,30.00,East,90,0.0,0.0,70,0.00,,,0.00,WUHU216HW,2013-03-23 16:19:00,
2013-03-23 17:24:00,32.7,24.0,30.00,ESE,113,0.0,0.0,70,0.00,,,0.00,WUHU216HW,2013-03-23 16:24:00,
2013-03-23 17:29:00,32.1,23.8,30.00,SE,135,0.0,0.0,71,0.00,,,0.00,WUHU216HW,2013-03-23 16:29:00,
2013-03-23 17:34:00,31.8,23.8,30.01,ESE,113,0.0,0.0,72,0.00,,,0.00,WUHU216HW,2013-03-23 16:34:00,
2013-03-23 17:39:00,31.6,23.6,30.01,SE,135,0.0,0.0,72,0.00,,,0.00,WUHU216HW,2013-03-23 16:39:00,
2013-03-23 17:44:00,30.9,23.2,30.01,SSW,203,0.0,0.0,73,0.00,,,0.00,WUHU216HW,2013-03-23 16:44:00,
2013-03-23 17:49:00,30.5,23.5,30.01,West,270,0.0,0.0,75,0.00,,,0.00,WUHU216HW,2013-03-23 16:49:00,
2013-03-23 17:54:00,30.0,23.0,30.01,WNW,293,0.0,0.0,75,0.00,,,0.00,WUHU216HW,2013-03-23 16:54:00,
2013-03-23 17:59:00,29.6,22.9,30.00,WNW,293,0.0,0.0,76,0.00,,,0.00,WUHU216HW,2013-03-23 16:59:00,
2013-03-23 18:04:00,29.1,22.7,30.01,West,270,0.0,0.0,77,0.00,,,0.00,WUHU216HW,2013-03-23 17:04:00,
2013-03-23 18:09:00,28.9,22.6,30.01,West,270,0.0,0.0,77,0.00,,,0.00,WUHU216HW,2013-03-23 17:09:00,
2013-03-23 18:14:00,28.7,22.4,30.01,West,270,0.0,0.0,77,0.00,,,0.00,WUHU216HW,2013-03-23 17:14:00,
2013-03-23 18:19:00,28.7,22.7,30.01,West,270,0.0,0.0,78,0.00,,,0.00,WUHU216HW,2013-03-23 17:19:00,
2013-03-23 18:24:00,28.5,22.8,30.01,NNW,338,0.0,0.0,79,0.00,,,0.00,WUHU216HW,2013-03-23 17:24:00,
2013-03-23 18:29:00,28.5,22.8,30.01,NW,315,0.0,0.0,79,0.00,,,0.00,WUHU216HW,2013-03-23 17:29:00,
2013-03-23 18:34:00,28.2,22.8,30.02,NW,315,0.0,0.0,80,0.00,,,0.00,WUHU216HW,2013-03-23 17:34:00,
2013-03-23 18:39:00,28.2,22.8,30.02,NW,315,0.0,0.0,80,0.00,,,0.00,WUHU216HW,2013-03-23 17:39:00,
2013-03-23 18:44:00,28.0,22.6,30.01,NW,315,0.0,0.0,80,0.00,,,0.00,WUHU216HW,2013-03-23 17:44:00,
2013-03-23 18:49:00,27.6,22.5,30.01,WNW,293,0.0,0.0,81,0.00,,,0.00,WUHU216HW,2013-03-23 17:49:00,
2013-03-23 18:54:00,27.6,22.5,30.01,WNW,293,0.0,0.0,81,0.00,,,0.00,WUHU216HW,2013-03-23 17:54:00,
2013-03-23 18:59:00,27.6,22.5,30.02,West,270,0.0,0.0,81,0.00,,,0.00,WUHU216HW,2013-03-23 17:59:00,
2013-03-23 19:04:00,27.6,22.5,30.02,West,270,0.0,0.0,81,0.00,,,0.00,WUHU216HW,2013-03-23 18:04:00,
2013-03-23 19:09:00,27.6,22.5,30.01,West,270,0.0,0.0,81,0.00,,,0.00,WUHU216HW,2013-03-23 18:09:00,
2013-03-23 19:14:00,27.6,22.8,30.01,West,270,0.0,0.0,82,0.00,,,0.00,WUHU216HW,2013-03-23 18:14:00,
2013-03-23 19:19:00,27.6,22.8,30.01,West,270,0.0,0.0,82,0.00,,,0.00,WUHU216HW,2013-03-23 18:19:00,
2013-03-23 19:24:00,27.5,22.6,30.02,West,270,0.0,0.0,82,0.00,,,0.00,WUHU216HW,2013-03-23 18:24:00,
2013-03-23 19:29:00,27.5,22.6,30.02,WSW,248,0.0,0.0,82,0.00,,,0.00,WUHU216HW,2013-03-23 18:29:00,
2013-03-23 19:34:00,27.3,22.4,30.02,NNW,338,0.0,0.0,82,0.00,,,0.00,WUHU216HW,2013-03-23 18:34:00,
2013-03-23 19:39:00,27.3,22.4,30.04,NNW,338,0.0,0.0,82,0.00,,,0.00,WUHU216HW,2013-03-23 18:39:00,
2013-03-23 19:44:00,27.3,22.7,30.04,NNW,338,0.0,0.0,83,0.00,,,0.00,WUHU216HW,2013-03-23 18:44:00,
2013-03-23 19:49:00,27.1,22.6,30.05,NW,315,0.0,0.0,83,0.00,,,0.00,WUHU216HW,2013-03-23 18:49:00,
2013-03-23 19:54:00,27.1,22.6,30.06,NW,315,0.0,0.0,83,0.00,,,0.00,WUHU216HW,2013-03-23 18:54:00,
2013-03-23 19:59:00,26.9,22.4,30.07,NNW,338,0.0,0.0,83,0.00,,,0.00,WUHU216HW,2013-03-23 18:59:00,
2013-03-23 20:04:00,26.9,22.4,30.08,NNW,338,0.0,0.0,83,0.00,,,0.00,WUHU216HW,2013-03-23 19:04:00,
2013-03-23 20:09:00,26.7,22.2,30.07,NNW,338,0.0,0.0,83,0.00,,,0.00,WUHU216HW,2013-03-23 19:09:00,
2013-03-23 20:14:00,26.6,22.5,30.08,NNW,338,0.0,0.0,84,0.00,,,0.00,WUHU216HW,2013-03-23 19:14:00,
2013-03-23 20:19:00,26.9,22.7,30.08,NW,315,0.0,0.0,84,0.00,,,0.00,WUHU216HW,2013-03-23 19:19:00,
2013-03-23 20:24:00,27.3,23.0,30.08,NW,315,0.0,1.5,84,0.00,,,0.00,WUHU216HW,2013-03-23 19:24:00,
2013-03-23 20:29:00,27.3,23.0,30.08,NW,315,0.0,1.5,84,0.00,,,0.00,WUHU216HW,2013-03-23 19:29:00,
2013-03-23 20:34:00,27.1,22.8,30.09,NW,315,0.0,0.0,84,0.00,,,0.00,WUHU216HW,2013-03-23 19:34:00,
2013-03-23 20:39:00,26.7,22.5,30.09,WNW,293,0.0,0.0,84,0.00,,,0.00,WUHU216HW,2013-03-23 19:39:00,
2013-03-23 20:44:00,26.6,22.3,30.09,WNW,293,0.0,0.0,84,0.00,,,0.00,WUHU216HW,2013-03-23 19:44:00,
2013-03-23 20:49:00,26.4,22.1,30.09,WNW,293,0.0,0.0,84,0.00,,,0.00,WUHU216HW,2013-03-23 19:49:00,
2013-03-23 20:54:00,26.4,22.1,30.09,WNW,293,0.0,0.0,84,0.00,,,0.00,WUHU216HW,2013-03-23 19:54:00,
2013-03-23 20:59:00,26.2,22.0,30.09,NW,315,0.0,0.0,84,0.00,,,0.00,WUHU216HW,2013-03-23 19:59:00,
2013-03-23 21:04:00,26.0,21.8,30.10,NW,315,0.0,0.0,84,0.00,,,0.00,WUHU216HW,2013-03-23 20:04:00,
2013-03-23 21:10:00,25.8,21.9,30.10,WNW,293,0.0,0.0,85,0.00,,,0.00,WUHU216HW,2013-03-23 20:10:00,
2013-03-23 21:15:00,26.0,22.1,30.10,WNW,293,0.0,0.0,85,0.00,,,0.00,WUHU216HW,2013-03-23 20:15:00,
2013-03-23 21:20:00,26.4,22.4,30.11,WNW,293,0.0,0.0,85,0.00,,,0.00,WUHU216HW,2013-03-23 20:20:00,
2013-03-23 21:25:00,26.2,22.0,30.10,WNW,293,0.0,0.0,84,0.00,,,0.00,WUHU216HW,2013-03-23 20:25:00,
2013-03-23 21:30:00,26.0,21.8,30.10,WNW,293,0.0,0.0,85,0.00,,,0.00,WUHU216HW,2013-03-23 20:30:00,
2013-03-23 21:35:00,25.8,21.9,30.11,WNW,293,0.0,0.0,85,0.00,,,0.00,WUHU216HW,2013-03-23 20:35:00,
2013-03-23 21:40:00,25.7,21.7,30.11,WNW,293,0.0,0.0,85,0.00,,,0.00,WUHU216HW,2013-03-23 20:40:00,
2013-03-23 21:45:00,25.5,21.6,30.10,NW,315,0.0,0.0,85,0.00,,,0.00,WUHU216HW,2013-03-23 20:45:00,
2013-03-23 21:50:00,25.5,21.6,30.10,WNW,293,0.0,0.0,85,0.00,,,0.00,WUHU216HW,2013-03-23 20:50:00,
2013-03-23 21:55:00,25.7,21.9,30.10,WNW,293,0.0,0.0,85,0.00,,,0.00,WUHU216HW,2013-03-23 20:55:00,
2013-03-23 22:00:00,25.8,21.9,30.10,WNW,293,0.0,0.0,85,0.00,,,0.00,WUHU216HW,2013-03-23 21:00:00,
2013-03-23 22:05:00,25.8,22.2,30.11,NW,315,0.0,0.0,86,0.00,,,0.00,WUHU216HW,2013-03-23 21:05:00,
2013-03-23 22:10:00,25.7,21.7,30.11,NW,315,0.0,0.0,85,0.00,,,0.00,WUHU216HW,2013-03-23 21:10:00,
2013-03-23 22:15:00,25.7,21.7,30.11,NW,315,0.0,0.0,85,0.00,,,0.00,WUHU216HW,2013-03-23 21:15:00,
2013-03-23 22:20:00,25.7,22.0,30.11,NW,315,0.0,0.0,86,0.00,,,0.00,WUHU216HW,2013-03-23 21:20:00,